Hygiene, CO (80533)

5:38 AM MST on February 28, 2015 (GMT -0700)
The Shores | Change Station
CLOSE
Current Station
Personal Weather Station
Location: Longmont, CO
Elevation: 5115 ft
Nearby Weather Stations

Elev 5115 ft 40.20 °N, 105.15 °W | Updated 3 minutes ago

Overcast
Overcast
5.6 °F
Feels Like 6 °F
N
2.0
Wind Variable Wind from NNW
Gusts 10.0 mph

Today
High -- | Low -- °F
--% Chance of Precip.
Yesterday
High -- | Low -- °F
Precip. -- in
6:35 AM 5:51 PM
Waxing Gibbous, 77% visible
Pressure 29.96 in
Visibility 7.0 miles
Clouds Mostly Cloudy 300 ft
Overcast 8500 ft
Windchill 6 °F
Dew Point 0 °F
Humidity 78%
Rainfall 0.00 in
Snow Depth Not available.
UV 0 out of 12
Pollen .60 out of 12
Air Quality Not available.
Flu Activity Not available.
METAR KLMO 281234Z AUTO 01003KT 7SM BKN003 OVC085 M14/M15 A2996 RMK AO2 T11391155

More Conditions Fewer Conditions

Pressure 29.96 in
Visibility 7.0 miles
Clouds Mostly Cloudy 300 ft
Overcast 8500 ft
Windchill 6 °F
Dew Point 0 °F
Humidity 78%
Rainfall 0.00 in
Snow Depth Not available.
UV 0 out of 12
Pollen .60 out of 12
Air Quality Not available.
Flu Activity Not available.
METAR KLMO 281234Z AUTO 01003KT 7SM BKN003 OVC085 M14/M15 A2996 RMK AO2 T11391155

More Conditions Fewer Conditions

10-Day Weather Forecast

Almanac

Astronomy

Feb. 28, 2015 Rise Set
Actual Time
Civil Twilight
Nautical Twilight
Astronomical Twilight
Moon
Length of Visible Light
Length of Day
Tomorrow will be .
, % of the Moon is Illuminated

Today's Extremes

State Highs State Lows

Community

WunderPhotos

Upload Photos

1,800,999 photos uploaded!

WunderBlogs® & News

Nearby

Air Quality

  Air Quality AQ Index Pollutant
Not available.

Snow Depth

Station Depth Elevation

Earthquake Activity

City Distance Mag. Time & Date
Minimum magnitude displayed is 2.5.

Coastal Water Temperatures

Place Temperature

Nearby Weather Stations